sensor_id;sensor_type;location;lat;lon;timestamp;P1;durP1;ratioP1;P2;durP2;ratioP2
7647;SDS011;3866;48.020;11.720;2022-12-07T00:01:16;26.97;;;16.13;;
7647;SDS011;3866;48.020;11.720;2022-12-07T00:03:44;26.57;;;16.20;;
7647;SDS011;3866;48.020;11.720;2022-12-07T00:06:14;23.60;;;15.23;;
7647;SDS011;3866;48.020;11.720;2022-12-07T00:08:43;28.07;;;17.07;;
7647;SDS011;3866;48.020;11.720;2022-12-07T00:11:12;26.57;;;15.73;;
7647;SDS011;3866;48.020;11.720;2022-12-07T00:13:41;26.63;;;16.30;;
7647;SDS011;3866;48.020;11.720;2022-12-07T00:16:09;24.90;;;15.87;;
7647;SDS011;3866;48.020;11.720;2022-12-07T00:18:37;23.60;;;15.40;;
7647;SDS011;3866;48.020;11.720;2022-12-07T00:21:06;26.40;;;16.43;;
7647;SDS011;3866;48.020;11.720;2022-12-07T00:23:35;21.60;;;14.77;;
7647;SDS011;3866;48.020;11.720;2022-12-07T00:26:03;29.07;;;16.67;;
7647;SDS011;3866;48.020;11.720;2022-12-07T00:28:32;23.23;;;15.63;;
7647;SDS011;3866;48.020;11.720;2022-12-07T00:31:00;23.90;;;16.10;;
7647;SDS011;3866;48.020;11.720;2022-12-07T00:33:28;21.73;;;14.57;;
7647;SDS011;3866;48.020;11.720;2022-12-07T00:35:56;24.07;;;15.43;;
7647;SDS011;3866;48.020;11.720;2022-12-07T00:38:23;22.50;;;14.60;;
7647;SDS011;3866;48.020;11.720;2022-12-07T00:40:55;23.03;;;14.40;;
7647;SDS011;3866;48.020;11.720;2022-12-07T00:43:22;20.43;;;13.67;;
7647;SDS011;3866;48.020;11.720;2022-12-07T00:45:51;22.37;;;14.13;;
7647;SDS011;3866;48.020;11.720;2022-12-07T00:48:18;20.23;;;13.20;;
7647;SDS011;3866;48.020;11.720;2022-12-07T00:50:45;22.57;;;13.90;;
7647;SDS011;3866;48.020;11.720;2022-12-07T00:53:12;23.33;;;14.57;;
7647;SDS011;3866;48.020;11.720;2022-12-07T00:55:39;21.07;;;13.40;;
7647;SDS011;3866;48.020;11.720;2022-12-07T00:58:07;22.33;;;14.07;;
7647;SDS011;3866;48.020;11.720;2022-12-07T01:00:35;21.17;;;12.93;;
7647;SDS011;3866;48.020;11.720;2022-12-07T01:03:04;20.47;;;12.93;;
7647;SDS011;3866;48.020;11.720;2022-12-07T01:05:32;21.43;;;13.40;;
7647;SDS011;3866;48.020;11.720;2022-12-07T01:07:59;18.20;;;12.13;;
7647;SDS011;3866;48.020;11.720;2022-12-07T01:10:27;19.57;;;13.43;;
7647;SDS011;3866;48.020;11.720;2022-12-07T01:12:56;21.90;;;12.47;;
7647;SDS011;3866;48.020;11.720;2022-12-07T01:15:23;21.27;;;14.03;;
7647;SDS011;3866;48.020;11.720;2022-12-07T01:17:51;19.63;;;12.27;;
7647;SDS011;3866;48.020;11.720;2022-12-07T01:20:21;17.60;;;12.53;;
7647;SDS011;3866;48.020;11.720;2022-12-07T01:22:48;17.73;;;12.20;;
7647;SDS011;3866;48.020;11.720;2022-12-07T01:25:15;21.07;;;12.70;;
7647;SDS011;3866;48.020;11.720;2022-12-07T01:27:42;17.13;;;12.20;;
7647;SDS011;3866;48.020;11.720;2022-12-07T01:30:09;18.43;;;12.27;;
7647;SDS011;3866;48.020;11.720;2022-12-07T01:32:37;17.93;;;11.33;;
7647;SDS011;3866;48.020;11.720;2022-12-07T01:35:04;18.20;;;12.33;;
7647;SDS011;3866;48.020;11.720;2022-12-07T01:37:35;18.53;;;12.50;;
7647;SDS011;3866;48.020;11.720;2022-12-07T01:40:03;19.73;;;12.60;;
7647;SDS011;3866;48.020;11.720;2022-12-07T01:42:31;18.30;;;11.90;;
7647;SDS011;3866;48.020;11.720;2022-12-07T01:48:02;19.43;;;11.87;;
7647;SDS011;3866;48.020;11.720;2022-12-07T01:50:30;18.33;;;11.10;;
7647;SDS011;3866;48.020;11.720;2022-12-07T01:52:59;17.30;;;11.93;;
7647;SDS011;3866;48.020;11.720;2022-12-07T01:55:29;16.73;;;11.30;;
7647;SDS011;3866;48.020;11.720;2022-12-07T01:57:58;16.87;;;11.47;;
7647;SDS011;3866;48.020;11.720;2022-12-07T02:00:25;15.67;;;11.00;;
7647;SDS011;3866;48.020;11.720;2022-12-07T02:02:53;16.13;;;11.87;;
7647;SDS011;3866;48.020;11.720;2022-12-07T02:05:23;15.43;;;11.73;;
7647;SDS011;3866;48.020;11.720;2022-12-07T02:07:51;17.80;;;11.20;;
7647;SDS011;3866;48.020;11.720;2022-12-07T02:10:24;15.50;;;10.73;;
7647;SDS011;3866;48.020;11.720;2022-12-07T02:12:54;14.23;;;10.17;;
7647;SDS011;3866;48.020;11.720;2022-12-07T02:15:24;15.50;;;10.70;;
7647;SDS011;3866;48.020;11.720;2022-12-07T02:18:00;15.23;;;10.97;;
7647;SDS011;3866;48.020;11.720;2022-12-07T02:20:32;15.87;;;10.30;;
7647;SDS011;3866;48.020;11.720;2022-12-07T02:23:11;16.60;;;10.83;;
7647;SDS011;3866;48.020;11.720;2022-12-07T02:26:06;14.60;;;9.40;;
7647;SDS011;3866;48.020;11.720;2022-12-07T02:28:58;14.50;;;10.53;;
7647;SDS011;3866;48.020;11.720;2022-12-07T02:31:36;11.83;;;9.47;;
7647;SDS011;3866;48.020;11.720;2022-12-07T02:34:09;15.13;;;10.73;;
7647;SDS011;3866;48.020;11.720;2022-12-07T02:36:45;17.50;;;11.53;;
7647;SDS011;3866;48.020;11.720;2022-12-07T02:39:18;14.37;;;10.07;;
7647;SDS011;3866;48.020;11.720;2022-12-07T02:41:52;14.27;;;10.00;;
7647;SDS011;3866;48.020;11.720;2022-12-07T02:44:26;13.43;;;10.30;;
7647;SDS011;3866;48.020;11.720;2022-12-07T02:46:55;15.10;;;11.33;;
7647;SDS011;3866;48.020;11.720;2022-12-07T02:49:27;13.10;;;10.07;;
7647;SDS011;3866;48.020;11.720;2022-12-07T02:51:55;13.13;;;9.93;;
7647;SDS011;3866;48.020;11.720;2022-12-07T02:54:22;12.80;;;9.63;;
7647;SDS011;3866;48.020;11.720;2022-12-07T02:56:49;12.17;;;9.37;;
7647;SDS011;3866;48.020;11.720;2022-12-07T02:59:24;14.67;;;10.23;;
7647;SDS011;3866;48.020;11.720;2022-12-07T03:02:00;15.83;;;11.07;;
7647;SDS011;3866;48.020;11.720;2022-12-07T03:04:40;16.77;;;12.10;;
7647;SDS011;3866;48.020;11.720;2022-12-07T03:07:15;13.10;;;9.80;;
7647;SDS011;3866;48.020;11.720;2022-12-07T03:09:51;14.87;;;10.93;;
7647;SDS011;3866;48.020;11.720;2022-12-07T03:12:27;17.33;;;11.97;;
7647;SDS011;3866;48.020;11.720;2022-12-07T03:15:05;13.90;;;10.30;;
7647;SDS011;3866;48.020;11.720;2022-12-07T03:17:35;17.43;;;11.70;;
7647;SDS011;3866;48.020;11.720;2022-12-07T03:20:09;16.20;;;11.10;;
7647;SDS011;3866;48.020;11.720;2022-12-07T03:22:37;20.20;;;12.07;;
7647;SDS011;3866;48.020;11.720;2022-12-07T03:25:08;20.07;;;12.63;;
7647;SDS011;3866;48.020;11.720;2022-12-07T03:27:38;19.60;;;12.40;;
7647;SDS011;3866;48.020;11.720;2022-12-07T03:30:12;19.43;;;12.57;;
7647;SDS011;3866;48.020;11.720;2022-12-07T03:32:43;18.97;;;12.77;;
7647;SDS011;3866;48.020;11.720;2022-12-07T03:35:15;19.47;;;13.10;;
7647;SDS011;3866;48.020;11.720;2022-12-07T03:37:48;19.27;;;13.03;;
7647;SDS011;3866;48.020;11.720;2022-12-07T03:40:19;19.27;;;12.73;;
7647;SDS011;3866;48.020;11.720;2022-12-07T03:42:51;19.30;;;12.80;;
7647;SDS011;3866;48.020;11.720;2022-12-07T03:45:22;20.53;;;12.90;;
7647;SDS011;3866;48.020;11.720;2022-12-07T03:47:59;21.67;;;13.33;;
7647;SDS011;3866;48.020;11.720;2022-12-07T03:50:34;20.17;;;13.60;;
7647;SDS011;3866;48.020;11.720;2022-12-07T03:53:08;17.50;;;12.30;;
7647;SDS011;3866;48.020;11.720;2022-12-07T03:55:41;22.77;;;14.00;;
7647;SDS011;3866;48.020;11.720;2022-12-07T03:58:12;20.83;;;13.83;;
7647;SDS011;3866;48.020;11.720;2022-12-07T04:00:44;19.33;;;11.97;;
7647;SDS011;3866;48.020;11.720;2022-12-07T04:03:11;18.80;;;12.70;;
7647;SDS011;3866;48.020;11.720;2022-12-07T04:05:38;17.83;;;12.30;;
7647;SDS011;3866;48.020;11.720;2022-12-07T04:08:05;20.03;;;13.77;;
7647;SDS011;3866;48.020;11.720;2022-12-07T04:10:33;23.80;;;14.50;;
7647;SDS011;3866;48.020;11.720;2022-12-07T04:13:00;19.23;;;12.07;;
7647;SDS011;3866;48.020;11.720;2022-12-07T04:15:27;19.50;;;13.03;;
7647;SDS011;3866;48.020;11.720;2022-12-07T04:17:55;21.03;;;13.13;;
7647;SDS011;3866;48.020;11.720;2022-12-07T04:20:22;21.00;;;14.13;;
7647;SDS011;3866;48.020;11.720;2022-12-07T04:22:50;19.63;;;13.30;;
7647;SDS011;3866;48.020;11.720;2022-12-07T04:25:17;22.10;;;13.77;;
7647;SDS011;3866;48.020;11.720;2022-12-07T04:27:43;20.60;;;13.40;;
7647;SDS011;3866;48.020;11.720;2022-12-07T04:30:10;20.77;;;13.70;;
7647;SDS011;3866;48.020;11.720;2022-12-07T04:32:38;21.20;;;14.30;;
7647;SDS011;3866;48.020;11.720;2022-12-07T04:35:06;21.87;;;14.40;;
7647;SDS011;3866;48.020;11.720;2022-12-07T04:37:34;19.23;;;13.73;;
7647;SDS011;3866;48.020;11.720;2022-12-07T04:40:01;18.50;;;12.87;;
7647;SDS011;3866;48.020;11.720;2022-12-07T04:42:28;17.07;;;12.50;;
7647;SDS011;3866;48.020;11.720;2022-12-07T04:44:55;20.93;;;13.13;;
7647;SDS011;3866;48.020;11.720;2022-12-07T04:47:22;23.43;;;13.87;;
7647;SDS011;3866;48.020;11.720;2022-12-07T04:49:48;21.07;;;13.07;;
7647;SDS011;3866;48.020;11.720;2022-12-07T04:52:17;21.30;;;14.13;;
7647;SDS011;3866;48.020;11.720;2022-12-07T04:54:44;19.80;;;12.63;;
7647;SDS011;3866;48.020;11.720;2022-12-07T04:57:11;19.77;;;13.83;;
7647;SDS011;3866;48.020;11.720;2022-12-07T04:59:37;19.10;;;13.10;;
7647;SDS011;3866;48.020;11.720;2022-12-07T05:02:04;19.40;;;14.10;;
7647;SDS011;3866;48.020;11.720;2022-12-07T05:04:31;23.47;;;13.97;;
7647;SDS011;3866;48.020;11.720;2022-12-07T05:06:58;19.87;;;13.00;;
7647;SDS011;3866;48.020;11.720;2022-12-07T05:09:26;19.47;;;13.23;;
7647;SDS011;3866;48.020;11.720;2022-12-07T05:11:53;19.50;;;13.47;;
7647;SDS011;3866;48.020;11.720;2022-12-07T05:14:20;19.53;;;13.03;;
7647;SDS011;3866;48.020;11.720;2022-12-07T05:16:48;18.60;;;12.40;;
7647;SDS011;3866;48.020;11.720;2022-12-07T05:19:16;21.33;;;13.43;;
7647;SDS011;3866;48.020;11.720;2022-12-07T05:21:44;19.93;;;14.03;;
7647;SDS011;3866;48.020;11.720;2022-12-07T05:24:12;25.23;;;17.17;;
7647;SDS011;3866;48.020;11.720;2022-12-07T05:26:41;22.33;;;14.87;;
7647;SDS011;3866;48.020;11.720;2022-12-07T05:29:10;21.53;;;14.33;;
7647;SDS011;3866;48.020;11.720;2022-12-07T05:31:37;19.80;;;13.90;;
7647;SDS011;3866;48.020;11.720;2022-12-07T05:34:04;22.40;;;14.30;;
7647;SDS011;3866;48.020;11.720;2022-12-07T05:36:31;21.90;;;14.57;;
7647;SDS011;3866;48.020;11.720;2022-12-07T05:38:58;20.93;;;13.93;;
7647;SDS011;3866;48.020;11.720;2022-12-07T05:41:26;21.30;;;14.40;;
7647;SDS011;3866;48.020;11.720;2022-12-07T05:44:11;20.97;;;13.97;;
7647;SDS011;3866;48.020;11.720;2022-12-07T05:46:38;23.23;;;14.87;;
7647;SDS011;3866;48.020;11.720;2022-12-07T05:49:05;20.37;;;13.60;;
7647;SDS011;3866;48.020;11.720;2022-12-07T05:51:32;20.93;;;14.93;;
7647;SDS011;3866;48.020;11.720;2022-12-07T05:53:59;20.33;;;14.27;;
7647;SDS011;3866;48.020;11.720;2022-12-07T05:56:26;21.37;;;14.23;;
7647;SDS011;3866;48.020;11.720;2022-12-07T05:58:53;20.87;;;14.87;;
7647;SDS011;3866;48.020;11.720;2022-12-07T06:01:39;21.13;;;14.03;;
7647;SDS011;3866;48.020;11.720;2022-12-07T06:04:06;19.10;;;12.80;;
7647;SDS011;3866;48.020;11.720;2022-12-07T06:06:33;21.50;;;14.30;;
7647;SDS011;3866;48.020;11.720;2022-12-07T06:09:00;21.90;;;14.50;;
7647;SDS011;3866;48.020;11.720;2022-12-07T06:11:27;21.40;;;14.47;;
7647;SDS011;3866;48.020;11.720;2022-12-07T06:14:11;21.80;;;14.50;;
7647;SDS011;3866;48.020;11.720;2022-12-07T06:16:39;21.73;;;13.37;;
7647;SDS011;3866;48.020;11.720;2022-12-07T06:19:06;22.13;;;13.87;;
7647;SDS011;3866;48.020;11.720;2022-12-07T06:21:33;22.93;;;14.83;;
7647;SDS011;3866;48.020;11.720;2022-12-07T06:24:00;27.17;;;14.63;;
7647;SDS011;3866;48.020;11.720;2022-12-07T06:26:28;22.00;;;14.83;;
7647;SDS011;3866;48.020;11.720;2022-12-07T06:28:55;19.37;;;13.53;;
7647;SDS011;3866;48.020;11.720;2022-12-07T06:31:22;24.13;;;15.37;;
7647;SDS011;3866;48.020;11.720;2022-12-07T06:33:50;22.83;;;14.67;;
7647;SDS011;3866;48.020;11.720;2022-12-07T06:36:17;22.10;;;13.57;;
7647;SDS011;3866;48.020;11.720;2022-12-07T06:38:44;24.53;;;14.57;;
7647;SDS011;3866;48.020;11.720;2022-12-07T06:41:11;24.23;;;15.20;;
7647;SDS011;3866;48.020;11.720;2022-12-07T06:43:37;23.40;;;13.80;;
7647;SDS011;3866;48.020;11.720;2022-12-07T06:46:05;21.93;;;14.07;;
7647;SDS011;3866;48.020;11.720;2022-12-07T06:48:31;21.40;;;13.67;;
7647;SDS011;3866;48.020;11.720;2022-12-07T06:51:00;21.93;;;13.73;;
7647;SDS011;3866;48.020;11.720;2022-12-07T06:53:27;26.60;;;15.83;;
7647;SDS011;3866;48.020;11.720;2022-12-07T06:55:54;22.53;;;13.63;;
7647;SDS011;3866;48.020;11.720;2022-12-07T06:58:21;23.10;;;14.47;;
7647;SDS011;3866;48.020;11.720;2022-12-07T07:00:48;18.67;;;13.50;;
7647;SDS011;3866;48.020;11.720;2022-12-07T07:03:15;24.77;;;14.23;;
7647;SDS011;3866;48.020;11.720;2022-12-07T07:05:42;22.00;;;13.83;;
7647;SDS011;3866;48.020;11.720;2022-12-07T07:08:11;20.73;;;13.80;;
7647;SDS011;3866;48.020;11.720;2022-12-07T07:10:38;20.97;;;14.23;;
7647;SDS011;3866;48.020;11.720;2022-12-07T07:13:05;21.40;;;14.40;;
7647;SDS011;3866;48.020;11.720;2022-12-07T07:15:33;20.80;;;13.40;;
7647;SDS011;3866;48.020;11.720;2022-12-07T07:18:00;22.47;;;14.70;;
7647;SDS011;3866;48.020;11.720;2022-12-07T07:20:28;24.27;;;15.57;;
7647;SDS011;3866;48.020;11.720;2022-12-07T07:22:55;21.57;;;13.73;;
7647;SDS011;3866;48.020;11.720;2022-12-07T07:25:24;23.03;;;14.47;;
7647;SDS011;3866;48.020;11.720;2022-12-07T07:27:50;22.63;;;14.43;;
7647;SDS011;3866;48.020;11.720;2022-12-07T07:30:17;28.07;;;15.47;;
7647;SDS011;3866;48.020;11.720;2022-12-07T07:32:45;27.33;;;16.87;;
7647;SDS011;3866;48.020;11.720;2022-12-07T07:35:11;25.97;;;16.70;;
7647;SDS011;3866;48.020;11.720;2022-12-07T07:37:39;26.23;;;16.17;;
7647;SDS011;3866;48.020;11.720;2022-12-07T07:40:06;23.03;;;14.97;;
7647;SDS011;3866;48.020;11.720;2022-12-07T07:42:35;28.53;;;16.30;;
7647;SDS011;3866;48.020;11.720;2022-12-07T07:45:02;27.93;;;15.70;;
7647;SDS011;3866;48.020;11.720;2022-12-07T07:47:30;25.60;;;15.30;;
7647;SDS011;3866;48.020;11.720;2022-12-07T07:49:57;24.13;;;14.50;;
7647;SDS011;3866;48.020;11.720;2022-12-07T07:52:24;22.97;;;15.40;;
7647;SDS011;3866;48.020;11.720;2022-12-07T07:54:51;21.03;;;14.63;;
7647;SDS011;3866;48.020;11.720;2022-12-07T07:57:18;25.70;;;14.73;;
7647;SDS011;3866;48.020;11.720;2022-12-07T07:59:46;26.40;;;17.63;;
7647;SDS011;3866;48.020;11.720;2022-12-07T08:02:14;21.00;;;14.63;;
7647;SDS011;3866;48.020;11.720;2022-12-07T08:04:41;20.87;;;13.10;;
7647;SDS011;3866;48.020;11.720;2022-12-07T08:07:08;20.30;;;13.63;;
7647;SDS011;3866;48.020;11.720;2022-12-07T08:09:36;19.23;;;13.50;;
7647;SDS011;3866;48.020;11.720;2022-12-07T08:12:03;19.67;;;14.47;;
7647;SDS011;3866;48.020;11.720;2022-12-07T08:14:30;22.20;;;14.13;;
7647;SDS011;3866;48.020;11.720;2022-12-07T08:16:59;20.97;;;13.23;;
7647;SDS011;3866;48.020;11.720;2022-12-07T08:19:26;20.57;;;14.67;;
7647;SDS011;3866;48.020;11.720;2022-12-07T08:21:54;21.67;;;13.93;;
7647;SDS011;3866;48.020;11.720;2022-12-07T08:24:21;19.13;;;13.53;;
7647;SDS011;3866;48.020;11.720;2022-12-07T08:26:51;19.13;;;12.73;;
7647;SDS011;3866;48.020;11.720;2022-12-07T08:29:18;17.77;;;12.33;;
7647;SDS011;3866;48.020;11.720;2022-12-07T08:31:45;16.27;;;12.00;;
7647;SDS011;3866;48.020;11.720;2022-12-07T08:34:15;17.80;;;11.33;;
7647;SDS011;3866;48.020;11.720;2022-12-07T08:36:42;18.73;;;12.33;;
7647;SDS011;3866;48.020;11.720;2022-12-07T08:39:09;17.07;;;11.37;;
7647;SDS011;3866;48.020;11.720;2022-12-07T08:41:36;16.87;;;10.93;;
7647;SDS011;3866;48.020;11.720;2022-12-07T08:44:03;15.67;;;11.53;;
7647;SDS011;3866;48.020;11.720;2022-12-07T08:46:31;17.17;;;12.33;;
7647;SDS011;3866;48.020;11.720;2022-12-07T08:49:03;16.73;;;11.83;;
7647;SDS011;3866;48.020;11.720;2022-12-07T08:51:36;17.10;;;11.47;;
7647;SDS011;3866;48.020;11.720;2022-12-07T08:54:04;17.00;;;11.97;;
7647;SDS011;3866;48.020;11.720;2022-12-07T08:56:35;17.70;;;12.07;;
7647;SDS011;3866;48.020;11.720;2022-12-07T08:59:02;15.80;;;11.53;;
7647;SDS011;3866;48.020;11.720;2022-12-07T09:01:30;18.10;;;11.30;;
7647;SDS011;3866;48.020;11.720;2022-12-07T09:03:57;18.07;;;11.67;;
7647;SDS011;3866;48.020;11.720;2022-12-07T09:06:24;16.83;;;11.53;;
7647;SDS011;3866;48.020;11.720;2022-12-07T09:08:54;15.70;;;11.33;;
7647;SDS011;3866;48.020;11.720;2022-12-07T09:11:24;16.20;;;11.57;;
7647;SDS011;3866;48.020;11.720;2022-12-07T09:13:51;15.23;;;11.67;;
7647;SDS011;3866;48.020;11.720;2022-12-07T09:16:18;17.40;;;12.30;;
7647;SDS011;3866;48.020;11.720;2022-12-07T09:18:45;17.83;;;11.57;;
7647;SDS011;3866;48.020;11.720;2022-12-07T09:21:12;16.13;;;11.80;;
7647;SDS011;3866;48.020;11.720;2022-12-07T09:23:39;14.63;;;11.27;;
7647;SDS011;3866;48.020;11.720;2022-12-07T09:26:09;17.97;;;12.50;;
7647;SDS011;3866;48.020;11.720;2022-12-07T09:28:36;15.90;;;11.07;;
7647;SDS011;3866;48.020;11.720;2022-12-07T09:31:04;16.17;;;10.90;;
7647;SDS011;3866;48.020;11.720;2022-12-07T09:33:31;15.10;;;11.10;;
7647;SDS011;3866;48.020;11.720;2022-12-07T09:35:58;15.17;;;11.40;;
7647;SDS011;3866;48.020;11.720;2022-12-07T09:38:25;13.70;;;10.77;;
7647;SDS011;3866;48.020;11.720;2022-12-07T09:40:52;12.83;;;9.40;;
7647;SDS011;3866;48.020;11.720;2022-12-07T09:43:22;14.73;;;10.60;;
7647;SDS011;3866;48.020;11.720;2022-12-07T09:45:51;14.57;;;10.97;;
7647;SDS011;3866;48.020;11.720;2022-12-07T09:48:21;15.20;;;9.83;;
7647;SDS011;3866;48.020;11.720;2022-12-07T09:50:51;14.37;;;10.80;;
7647;SDS011;3866;48.020;11.720;2022-12-07T09:53:21;13.70;;;10.77;;
7647;SDS011;3866;48.020;11.720;2022-12-07T09:55:51;16.67;;;11.30;;
7647;SDS011;3866;48.020;11.720;2022-12-07T09:58:20;15.10;;;11.27;;
7647;SDS011;3866;48.020;11.720;2022-12-07T10:00:52;15.87;;;11.50;;
7647;SDS011;3866;48.020;11.720;2022-12-07T10:03:22;15.27;;;12.17;;
7647;SDS011;3866;48.020;11.720;2022-12-07T10:05:49;15.03;;;11.33;;
7647;SDS011;3866;48.020;11.720;2022-12-07T10:08:18;13.50;;;10.43;;
7647;SDS011;3866;48.020;11.720;2022-12-07T10:10:46;14.40;;;10.40;;
7647;SDS011;3866;48.020;11.720;2022-12-07T10:13:18;14.07;;;10.93;;
7647;SDS011;3866;48.020;11.720;2022-12-07T10:15:50;15.33;;;11.33;;
7647;SDS011;3866;48.020;11.720;2022-12-07T10:18:19;13.70;;;10.00;;
7647;SDS011;3866;48.020;11.720;2022-12-07T10:21:02;14.17;;;10.47;;
7647;SDS011;3866;48.020;11.720;2022-12-07T10:23:42;12.97;;;10.20;;
7647;SDS011;3866;48.020;11.720;2022-12-07T10:26:29;12.07;;;9.40;;
7647;SDS011;3866;48.020;11.720;2022-12-07T10:28:59;12.87;;;9.27;;
7647;SDS011;3866;48.020;11.720;2022-12-07T10:31:29;12.80;;;9.47;;
7647;SDS011;3866;48.020;11.720;2022-12-07T10:33:57;15.80;;;10.80;;
7647;SDS011;3866;48.020;11.720;2022-12-07T10:36:26;13.87;;;11.00;;
7647;SDS011;3866;48.020;11.720;2022-12-07T10:39:01;15.83;;;11.07;;
7647;SDS011;3866;48.020;11.720;2022-12-07T10:41:29;13.43;;;10.67;;
7647;SDS011;3866;48.020;11.720;2022-12-07T10:43:56;12.70;;;10.87;;
7647;SDS011;3866;48.020;11.720;2022-12-07T10:46:36;14.80;;;10.47;;
7647;SDS011;3866;48.020;11.720;2022-12-07T10:49:25;13.83;;;10.97;;
7647;SDS011;3866;48.020;11.720;2022-12-07T10:52:13;13.23;;;9.70;;
7647;SDS011;3866;48.020;11.720;2022-12-07T10:54:52;12.77;;;9.60;;
7647;SDS011;3866;48.020;11.720;2022-12-07T10:57:38;14.40;;;10.33;;
7647;SDS011;3866;48.020;11.720;2022-12-07T11:00:14;13.70;;;10.07;;
7647;SDS011;3866;48.020;11.720;2022-12-07T11:02:52;12.90;;;9.73;;
7647;SDS011;3866;48.020;11.720;2022-12-07T11:05:44;13.90;;;11.57;;
7647;SDS011;3866;48.020;11.720;2022-12-07T11:08:18;12.77;;;10.03;;
7647;SDS011;3866;48.020;11.720;2022-12-07T11:10:58;15.23;;;10.90;;
7647;SDS011;3866;48.020;11.720;2022-12-07T11:13:34;12.77;;;8.90;;
7647;SDS011;3866;48.020;11.720;2022-12-07T11:16:14;11.83;;;9.47;;
7647;SDS011;3866;48.020;11.720;2022-12-07T11:18:51;15.13;;;10.67;;
7647;SDS011;3866;48.020;11.720;2022-12-07T11:21:32;14.33;;;9.23;;
7647;SDS011;3866;48.020;11.720;2022-12-07T11:24:10;15.83;;;10.23;;
7647;SDS011;3866;48.020;11.720;2022-12-07T11:26:50;10.87;;;9.10;;
7647;SDS011;3866;48.020;11.720;2022-12-07T11:29:39;11.43;;;9.27;;
7647;SDS011;3866;48.020;11.720;2022-12-07T11:32:17;13.43;;;9.70;;
7647;SDS011;3866;48.020;11.720;2022-12-07T11:34:52;13.20;;;9.93;;
7647;SDS011;3866;48.020;11.720;2022-12-07T11:37:27;11.33;;;9.43;;
7647;SDS011;3866;48.020;11.720;2022-12-07T11:40:00;10.73;;;8.23;;
7647;SDS011;3866;48.020;11.720;2022-12-07T11:42:30;12.33;;;9.47;;
7647;SDS011;3866;48.020;11.720;2022-12-07T11:45:04;12.03;;;9.10;;
7647;SDS011;3866;48.020;11.720;2022-12-07T11:47:41;12.30;;;9.37;;
7647;SDS011;3866;48.020;11.720;2022-12-07T11:50:23;11.03;;;8.50;;
7647;SDS011;3866;48.020;11.720;2022-12-07T11:52:54;13.33;;;9.53;;
7647;SDS011;3866;48.020;11.720;2022-12-07T11:55:26;13.37;;;10.07;;
7647;SDS011;3866;48.020;11.720;2022-12-07T11:58:01;10.73;;;8.97;;
7647;SDS011;3866;48.020;11.720;2022-12-07T12:00:35;12.47;;;9.20;;
7647;SDS011;3866;48.020;11.720;2022-12-07T12:03:05;11.37;;;8.63;;
7647;SDS011;3866;48.020;11.720;2022-12-07T12:05:40;13.67;;;9.50;;
7647;SDS011;3866;48.020;11.720;2022-12-07T12:08:11;11.27;;;8.87;;
7647;SDS011;3866;48.020;11.720;2022-12-07T12:10:45;11.53;;;8.93;;
7647;SDS011;3866;48.020;11.720;2022-12-07T12:13:27;10.30;;;8.43;;
7647;SDS011;3866;48.020;11.720;2022-12-07T12:16:08;11.53;;;8.53;;
7647;SDS011;3866;48.020;11.720;2022-12-07T12:21:44;10.90;;;8.30;;
7647;SDS011;3866;48.020;11.720;2022-12-07T12:24:15;13.23;;;9.40;;
7647;SDS011;3866;48.020;11.720;2022-12-07T12:26:49;11.67;;;8.83;;
7647;SDS011;3866;48.020;11.720;2022-12-07T12:29:21;11.40;;;8.50;;
7647;SDS011;3866;48.020;11.720;2022-12-07T12:32:08;12.53;;;8.80;;
7647;SDS011;3866;48.020;11.720;2022-12-07T12:34:41;12.30;;;9.63;;
7647;SDS011;3866;48.020;11.720;2022-12-07T12:37:42;16.60;;;9.43;;
7647;SDS011;3866;48.020;11.720;2022-12-07T12:55:19;14.33;;;10.27;;
7647;SDS011;3866;48.020;11.720;2022-12-07T13:04:32;13.03;;;9.40;;
7647;SDS011;3866;48.020;11.720;2022-12-07T13:10:25;16.67;;;10.00;;
7647;SDS011;3866;48.020;11.720;2022-12-07T13:22:07;12.23;;;9.60;;
7647;SDS011;3866;48.020;11.720;2022-12-07T13:25:04;12.70;;;9.23;;
7647;SDS011;3866;48.020;11.720;2022-12-07T13:27:36;12.80;;;9.70;;
7647;SDS011;3866;48.020;11.720;2022-12-07T13:30:09;11.93;;;8.67;;
7647;SDS011;3866;48.020;11.720;2022-12-07T13:32:40;13.27;;;9.53;;
7647;SDS011;3866;48.020;11.720;2022-12-07T13:37:56;12.67;;;9.43;;
7647;SDS011;3866;48.020;11.720;2022-12-07T13:40:24;14.50;;;10.00;;
7647;SDS011;3866;48.020;11.720;2022-12-07T13:42:58;13.23;;;9.60;;
7647;SDS011;3866;48.020;11.720;2022-12-07T13:45:26;16.27;;;11.00;;
7647;SDS011;3866;48.020;11.720;2022-12-07T13:48:10;15.03;;;10.10;;
7647;SDS011;3866;48.020;11.720;2022-12-07T13:50:42;13.70;;;9.60;;
7647;SDS011;3866;48.020;11.720;2022-12-07T13:53:11;13.40;;;9.90;;
7647;SDS011;3866;48.020;11.720;2022-12-07T13:55:44;13.37;;;9.93;;
7647;SDS011;3866;48.020;11.720;2022-12-07T13:58:13;12.20;;;8.97;;
7647;SDS011;3866;48.020;11.720;2022-12-07T14:00:40;11.20;;;8.47;;
7647;SDS011;3866;48.020;11.720;2022-12-07T14:03:25;12.93;;;9.53;;
7647;SDS011;3866;48.020;11.720;2022-12-07T14:06:06;13.00;;;9.23;;
7647;SDS011;3866;48.020;11.720;2022-12-07T14:09:05;13.63;;;9.73;;
7647;SDS011;3866;48.020;11.720;2022-12-07T14:11:33;11.53;;;9.60;;
7647;SDS011;3866;48.020;11.720;2022-12-07T14:14:02;13.23;;;9.23;;
7647;SDS011;3866;48.020;11.720;2022-12-07T14:16:30;15.03;;;9.60;;
7647;SDS011;3866;48.020;11.720;2022-12-07T14:18:58;12.03;;;8.83;;
7647;SDS011;3866;48.020;11.720;2022-12-07T14:21:27;12.80;;;8.80;;
7647;SDS011;3866;48.020;11.720;2022-12-07T14:24:02;15.13;;;9.13;;
7647;SDS011;3866;48.020;11.720;2022-12-07T14:26:41;13.87;;;9.10;;
7647;SDS011;3866;48.020;11.720;2022-12-07T14:32:20;12.77;;;9.43;;
7647;SDS011;3866;48.020;11.720;2022-12-07T14:34:56;15.27;;;10.67;;
7647;SDS011;3866;48.020;11.720;2022-12-07T14:37:28;13.90;;;9.77;;
7647;SDS011;3866;48.020;11.720;2022-12-07T14:39:56;15.43;;;9.40;;
7647;SDS011;3866;48.020;11.720;2022-12-07T14:42:24;12.17;;;8.70;;
7647;SDS011;3866;48.020;11.720;2022-12-07T14:44:55;11.43;;;8.90;;
7647;SDS011;3866;48.020;11.720;2022-12-07T14:47:23;11.63;;;8.97;;
7647;SDS011;3866;48.020;11.720;2022-12-07T14:49:51;11.40;;;8.77;;
7647;SDS011;3866;48.020;11.720;2022-12-07T14:52:19;12.83;;;9.23;;
7647;SDS011;3866;48.020;11.720;2022-12-07T14:54:49;13.07;;;9.50;;
7647;SDS011;3866;48.020;11.720;2022-12-07T14:57:16;12.43;;;8.97;;
7647;SDS011;3866;48.020;11.720;2022-12-07T14:59:43;13.50;;;9.73;;
7647;SDS011;3866;48.020;11.720;2022-12-07T15:02:12;13.20;;;9.67;;
7647;SDS011;3866;48.020;11.720;2022-12-07T15:04:40;14.70;;;10.90;;
7647;SDS011;3866;48.020;11.720;2022-12-07T15:07:09;13.93;;;10.27;;
7647;SDS011;3866;48.020;11.720;2022-12-07T15:09:40;14.00;;;10.40;;
7647;SDS011;3866;48.020;11.720;2022-12-07T15:12:07;14.33;;;10.40;;
7647;SDS011;3866;48.020;11.720;2022-12-07T15:14:34;13.67;;;9.47;;
7647;SDS011;3866;48.020;11.720;2022-12-07T15:17:01;11.80;;;8.83;;
7647;SDS011;3866;48.020;11.720;2022-12-07T15:19:30;11.93;;;9.03;;
7647;SDS011;3866;48.020;11.720;2022-12-07T15:21:57;12.97;;;9.70;;
7647;SDS011;3866;48.020;11.720;2022-12-07T15:24:24;14.47;;;9.60;;
7647;SDS011;3866;48.020;11.720;2022-12-07T15:26:52;14.13;;;10.73;;
7647;SDS011;3866;48.020;11.720;2022-12-07T15:29:18;12.80;;;9.83;;
7647;SDS011;3866;48.020;11.720;2022-12-07T15:31:47;13.90;;;10.10;;
7647;SDS011;3866;48.020;11.720;2022-12-07T15:34:15;13.77;;;10.70;;
7647;SDS011;3866;48.020;11.720;2022-12-07T15:36:43;15.47;;;11.20;;
7647;SDS011;3866;48.020;11.720;2022-12-07T15:39:10;13.17;;;9.77;;
7647;SDS011;3866;48.020;11.720;2022-12-07T15:41:37;14.90;;;10.70;;
7647;SDS011;3866;48.020;11.720;2022-12-07T15:44:05;19.30;;;11.60;;